Time;durP1;ratioP1;P1;durP2;ratioP2;P2;SDS_P1;SDS_P2;PMS_P1;PMS_P2;Temp;Humidity;BMP_temperature;BMP_pressure;BME280_temperature;BME280_humidity;BME280_pressure;Samples;Min_cycle;Max_cycle;Signal;HPM_P1;HPM_P2
2021/12/30 00:01:11;;;;;;;4.00;2.40;;;-2.10;99.90;;;;;;4997931;28;20207;-91
2021/12/30 00:03:43;;;;;;;4.33;2.50;;;-2.20;99.90;;;;;;4997206;28;20239;-95
2021/12/30 00:06:17;;;;;;;4.00;2.40;;;-2.30;99.90;;;;;;4998051;28;20278;-93
2021/12/30 00:08:52;;;;;;;5.57;2.80;;;-2.30;99.90;;;;;;4998146;28;20202;-92
2021/12/30 00:11:26;;;;;;;3.70;2.37;;;-2.30;99.90;;;;;;5000811;28;20206;-92
2021/12/30 00:14:01;;;;;;;3.27;2.40;;;-2.30;99.90;;;;;;5010502;28;20240;-92
2021/12/30 00:16:32;;;;;;;6.27;2.67;;;-2.40;99.90;;;;;;5010420;28;20213;-92
2021/12/30 00:19:06;;;;;;;4.57;2.30;;;-2.30;99.90;;;;;;5010912;28;20230;-92
2021/12/30 00:21:38;;;;;;;3.40;2.13;;;-2.50;99.90;;;;;;5015193;28;20210;-91
2021/12/30 00:24:12;;;;;;;3.57;2.23;;;-2.50;99.90;;;;;;5004742;28;20226;-93
2021/12/30 00:26:43;;;;;;;5.90;2.50;;;-2.50;99.90;;;;;;5001090;28;20702;-92
2021/12/30 00:29:15;;;;;;;5.23;2.43;;;-2.40;99.90;;;;;;5002018;28;20222;-93
2021/12/30 00:31:46;;;;;;;4.07;2.57;;;-2.50;99.90;;;;;;5001955;28;20252;-95
2021/12/30 00:34:18;;;;;;;4.17;2.50;;;-2.50;99.90;;;;;;5001946;28;20206;-92
2021/12/30 00:36:49;;;;;;;4.20;2.33;;;-2.50;99.90;;;;;;5001030;28;20242;-93
2021/12/30 00:39:22;;;;;;;4.50;2.87;;;-2.60;99.90;;;;;;5002145;28;20231;-93
2021/12/30 00:41:54;;;;;;;4.17;2.43;;;-2.70;99.90;;;;;;5001621;28;20585;-93
2021/12/30 00:44:25;;;;;;;6.10;2.57;;;-2.80;99.90;;;;;;5000227;28;20337;-93
2021/12/30 00:46:57;;;;;;;4.13;2.40;;;-2.90;99.90;;;;;;5000950;28;20206;-94
2021/12/30 00:49:29;;;;;;;5.00;2.70;;;-3.00;99.90;;;;;;5001835;28;20235;-93
2021/12/30 00:52:00;;;;;;;6.97;3.23;;;-3.10;99.90;;;;;;5000588;28;20221;-93
2021/12/30 00:54:35;;;;;;;6.50;2.77;;;-3.20;99.90;;;;;;5003076;28;20241;-92
2021/12/30 00:57:06;;;;;;;5.30;3.00;;;-3.30;99.90;;;;;;5004889;28;20205;-92
2021/12/30 00:59:38;;;;;;;5.60;3.07;;;-3.30;99.90;;;;;;5003027;28;20210;-92
2021/12/30 01:02:09;;;;;;;4.00;2.70;;;-3.40;99.90;;;;;;5003483;28;20214;-91
2021/12/30 01:04:41;;;;;;;6.17;3.27;;;-3.40;99.90;;;;;;5002810;28;20746;-92
2021/12/30 01:07:12;;;;;;;7.30;3.60;;;-3.40;99.90;;;;;;5000091;28;20226;-92
2021/12/30 01:09:46;;;;;;;7.63;3.80;;;-3.40;99.90;;;;;;5001720;28;20215;-91
2021/12/30 01:12:18;;;;;;;6.47;3.53;;;-3.50;99.90;;;;;;5001547;28;20604;-92
2021/12/30 01:14:50;;;;;;;6.40;3.33;;;-3.60;99.90;;;;;;5020940;28;20233;-92
2021/12/30 01:17:26;;;;;;;6.00;3.40;;;-3.50;99.90;;;;;;5020217;28;20220;-92
2021/12/30 01:19:58;;;;;;;6.70;3.60;;;-3.50;99.90;;;;;;5022174;28;20566;-93
2021/12/30 01:22:33;;;;;;;7.57;3.93;;;-3.50;99.90;;;;;;5019179;28;20214;-92
2021/12/30 01:25:08;;;;;;;6.57;3.50;;;-3.50;99.90;;;;;;5019899;28;20225;-92
2021/12/30 01:27:40;;;;;;;7.40;3.90;;;-3.50;99.90;;;;;;5020145;28;20213;-92
2021/12/30 01:30:15;;;;;;;9.30;3.80;;;-3.50;99.90;;;;;;5022948;28;20202;-92
2021/12/30 01:32:46;;;;;;;6.60;3.47;;;-3.50;99.90;;;;;;5021936;28;20194;-93
2021/12/30 01:35:23;;;;;;;8.13;4.03;;;-3.40;99.90;;;;;;5020451;28;20217;-91
2021/12/30 01:37:56;;;;;;;9.13;4.40;;;-3.40;99.90;;;;;;5019748;28;20213;-92
2021/12/30 01:40:32;;;;;;;5.93;4.10;;;-3.30;99.90;;;;;;5020098;28;20586;-93
2021/12/30 01:43:04;;;;;;;7.20;4.37;;;-3.30;99.90;;;;;;5018854;28;20217;-93
2021/12/30 01:45:35;;;;;;;7.30;4.30;;;-3.30;99.90;;;;;;5018906;28;20245;-93
2021/12/30 01:48:07;;;;;;;5.77;4.10;;;-3.20;99.90;;;;;;5018139;28;20201;-92
2021/12/30 01:50:39;;;;;;;8.10;3.70;;;-3.20;99.90;;;;;;5018912;28;20646;-91
2021/12/30 01:53:11;;;;;;;6.40;4.17;;;-3.10;99.90;;;;;;5019126;28;20264;-92
2021/12/30 01:55:45;;;;;;;10.37;4.37;;;-3.10;99.90;;;;;;5018318;28;20229;-92
2021/12/30 01:58:16;;;;;;;6.23;3.93;;;-3.10;99.90;;;;;;5019895;28;20217;-91
2021/12/30 02:00:49;;;;;;;6.97;4.30;;;-3.10;99.90;;;;;;5019345;28;20249;-90
2021/12/30 02:03:22;;;;;;;5.13;4.10;;;-3.00;99.90;;;;;;5019084;28;20659;-92
2021/12/30 02:05:55;;;;;;;7.87;4.20;;;-3.00;99.90;;;;;;5018464;28;20244;-92
2021/12/30 02:08:26;;;;;;;5.47;3.50;;;-3.00;99.90;;;;;;5018248;28;20248;-92
2021/12/30 02:10:59;;;;;;;6.03;4.57;;;-3.00;99.90;;;;;;5018414;28;20237;-91
2021/12/30 02:13:31;;;;;;;7.67;4.20;;;-3.00;99.90;;;;;;5019248;28;20253;-92
2021/12/30 02:16:02;;;;;;;6.73;4.43;;;-3.00;99.90;;;;;;5018951;28;20205;-91
2021/12/30 02:18:34;;;;;;;8.73;4.57;;;-3.00;99.90;;;;;;5018368;28;20203;-92
2021/12/30 02:21:07;;;;;;;8.00;4.57;;;-2.90;99.90;;;;;;5015533;28;20673;-92
2021/12/30 02:23:40;;;;;;;5.57;3.90;;;-2.90;99.90;;;;;;4986928;28;20234;-93
2021/12/30 02:26:14;;;;;;;6.57;4.23;;;-3.00;99.90;;;;;;4999584;28;20277;-93
2021/12/30 02:28:45;;;;;;;8.47;4.27;;;-2.90;99.90;;;;;;4999461;28;20240;-92
2021/12/30 02:31:19;;;;;;;6.60;4.80;;;-3.00;99.90;;;;;;4999549;28;20211;-93
2021/12/30 02:33:51;;;;;;;7.57;4.53;;;-2.90;99.90;;;;;;5007064;28;20241;-93
2021/12/30 02:36:29;;;;;;;7.10;4.70;;;-2.90;99.90;;;;;;5012202;28;20213;-91
2021/12/30 02:39:02;;;;;;;8.07;4.70;;;-3.00;99.90;;;;;;5017130;28;20206;-92
2021/12/30 02:41:34;;;;;;;6.07;4.03;;;-3.00;99.90;;;;;;5017430;28;20206;-90
2021/12/30 02:44:07;;;;;;;8.13;4.43;;;-3.00;99.90;;;;;;5017203;28;20248;-91
2021/12/30 02:46:40;;;;;;;6.87;4.23;;;-2.90;99.90;;;;;;5001635;28;20293;-92
2021/12/30 02:49:12;;;;;;;7.23;5.13;;;-2.90;99.90;;;;;;4998340;28;20240;-92
2021/12/30 02:51:45;;;;;;;8.10;5.10;;;-3.00;99.90;;;;;;4998021;28;20305;-92
2021/12/30 02:54:16;;;;;;;9.93;5.30;;;-2.90;99.90;;;;;;4997917;28;20246;-93
2021/12/30 02:56:48;;;;;;;8.30;5.23;;;-2.90;99.90;;;;;;4997548;28;20233;-92
2021/12/30 02:59:19;;;;;;;9.83;5.33;;;-2.90;99.90;;;;;;4998994;28;20209;-92
2021/12/30 03:01:51;;;;;;;8.17;4.87;;;-2.80;99.90;;;;;;5000238;28;20202;-93
2021/12/30 03:04:23;;;;;;;7.37;4.60;;;-2.80;99.90;;;;;;5000990;28;20310;-93
2021/12/30 03:06:57;;;;;;;7.90;4.70;;;-2.70;99.90;;;;;;5000260;28;20326;-92
2021/12/30 03:09:28;;;;;;;9.07;5.13;;;-2.80;99.90;;;;;;5000236;28;20203;-92
2021/12/30 03:11:58;;;;;;;8.23;4.67;;;-2.70;99.90;;;;;;5000996;28;20251;-90
2021/12/30 03:14:29;;;;;;;8.23;4.57;;;-2.70;99.90;;;;;;5004291;28;20210;-92
2021/12/30 03:17:00;;;;;;;6.67;4.40;;;-2.70;99.90;;;;;;5002807;28;20206;-91
2021/12/30 03:19:34;;;;;;;5.73;3.67;;;-2.80;99.90;;;;;;5004658;28;20297;-93
2021/12/30 03:22:09;;;;;;;6.47;4.03;;;-2.80;99.90;;;;;;5002271;28;20290;-92
2021/12/30 03:24:40;;;;;;;7.00;4.00;;;-2.80;99.90;;;;;;4999678;28;20293;-91
2021/12/30 03:27:11;;;;;;;7.83;4.33;;;-2.80;99.90;;;;;;4999104;28;20270;-92
2021/12/30 03:29:43;;;;;;;7.23;4.10;;;-2.80;99.90;;;;;;5000891;28;20254;-92
2021/12/30 03:32:15;;;;;;;5.10;3.33;;;-2.80;99.90;;;;;;5002166;28;20230;-92
2021/12/30 03:34:46;;;;;;;5.30;4.00;;;-2.80;99.90;;;;;;5005184;28;20238;-92
2021/12/30 03:37:20;;;;;;;6.37;4.07;;;-2.80;99.90;;;;;;5006076;28;20239;-92
2021/12/30 03:39:50;;;;;;;5.53;3.77;;;-2.80;99.90;;;;;;5006215;28;20198;-92
2021/12/30 03:42:22;;;;;;;6.00;3.60;;;-2.80;99.90;;;;;;5008762;28;20210;-91
2021/12/30 03:44:56;;;;;;;7.70;4.17;;;-2.70;99.90;;;;;;5007661;28;20211;-91
2021/12/30 03:47:27;;;;;;;7.53;4.30;;;-2.70;99.90;;;;;;5008457;28;20233;-91
2021/12/30 03:50:01;;;;;;;8.03;4.27;;;-2.70;99.90;;;;;;5007005;28;20206;-93
2021/12/30 03:52:33;;;;;;;7.00;4.00;;;-2.70;99.90;;;;;;5007128;28;20233;-94
2021/12/30 03:55:05;;;;;;;9.10;4.23;;;-2.70;99.90;;;;;;5008767;28;20214;-92
2021/12/30 03:57:35;;;;;;;6.13;4.00;;;-2.70;99.90;;;;;;5011521;28;20202;-94
2021/12/30 04:00:08;;;;;;;6.27;4.23;;;-2.70;99.90;;;;;;5011626;28;20215;-91
2021/12/30 04:02:40;;;;;;;6.17;4.40;;;-2.70;99.90;;;;;;5011446;28;20651;-91
2021/12/30 04:05:13;;;;;;;7.27;4.80;;;-2.70;99.90;;;;;;5011613;28;20206;-91
2021/12/30 04:07:46;;;;;;;7.53;4.07;;;-2.70;99.90;;;;;;5011823;28;20241;-91
2021/12/30 04:10:21;;;;;;;5.60;4.07;;;-2.70;99.90;;;;;;5011003;28;20270;-92
2021/12/30 04:12:54;;;;;;;7.17;4.47;;;-2.70;99.90;;;;;;5012564;28;20267;-90
2021/12/30 04:15:26;;;;;;;7.27;4.20;;;-2.70;99.90;;;;;;5027540;28;20205;-90
2021/12/30 04:17:57;;;;;;;8.53;4.43;;;-2.70;99.90;;;;;;5022974;28;20566;-93
2021/12/30 04:20:29;;;;;;;8.13;4.40;;;-2.70;99.90;;;;;;5007708;28;20234;-93
2021/12/30 04:23:01;;;;;;;8.93;5.90;;;-2.70;99.90;;;;;;5001944;28;20289;-91
2021/12/30 04:25:33;;;;;;;8.60;5.30;;;-2.60;99.90;;;;;;5001940;28;20234;-91
2021/12/30 04:28:05;;;;;;;9.53;5.80;;;-2.70;99.90;;;;;;5000349;28;20215;-91
2021/12/30 04:30:36;;;;;;;9.63;6.00;;;-2.70;99.90;;;;;;5001900;28;20278;-92
2021/12/30 04:33:10;;;;;;;8.77;5.30;;;-2.70;99.90;;;;;;5002017;28;20206;-92
2021/12/30 04:35:41;;;;;;;12.03;6.00;;;-2.60;99.90;;;;;;5002083;28;20258;-92
2021/12/30 04:38:14;;;;;;;10.27;5.77;;;-2.70;99.90;;;;;;5000816;28;20218;-92
2021/12/30 04:40:45;;;;;;;7.80;5.27;;;-2.60;99.90;;;;;;5001384;28;20648;-93
2021/12/30 04:43:16;;;;;;;8.50;4.90;;;-2.70;99.90;;;;;;5001962;28;20249;-93
2021/12/30 04:45:49;;;;;;;8.13;4.83;;;-2.70;99.90;;;;;;5001222;28;20663;-93
2021/12/30 04:48:21;;;;;;;8.77;4.63;;;-2.70;99.90;;;;;;5000322;28;20210;-94
2021/12/30 04:50:53;;;;;;;8.27;5.20;;;-2.70;99.90;;;;;;5003571;28;20202;-92
2021/12/30 04:53:26;;;;;;;8.33;4.13;;;-2.70;99.90;;;;;;5005215;28;20242;-92
2021/12/30 04:55:57;;;;;;;8.73;4.23;;;-2.70;99.90;;;;;;5019713;28;20213;-93
2021/12/30 04:58:29;;;;;;;7.13;4.63;;;-2.70;99.90;;;;;;5018218;28;20214;-92
2021/12/30 05:01:00;;;;;;;8.50;4.73;;;-2.70;99.90;;;;;;5016409;28;20186;-92
2021/12/30 05:03:33;;;;;;;8.90;4.47;;;-2.70;99.90;;;;;;5011857;28;20269;-93
2021/12/30 05:06:04;;;;;;;8.47;4.60;;;-2.70;99.90;;;;;;5012642;28;20209;-92
2021/12/30 05:08:37;;;;;;;6.33;4.37;;;-2.70;99.90;;;;;;5003832;28;20234;-91
2021/12/30 05:11:10;;;;;;;7.57;4.47;;;-2.60;99.90;;;;;;5003082;28;20205;-92
2021/12/30 05:13:41;;;;;;;7.53;4.70;;;-2.60;99.90;;;;;;5001697;28;20207;-91
2021/12/30 05:16:12;;;;;;;7.50;4.30;;;-2.60;99.90;;;;;;5000300;28;20241;-94
2021/12/30 05:18:43;;;;;;;6.47;4.40;;;-2.60;99.90;;;;;;5001197;28;20206;-92
2021/12/30 05:21:14;;;;;;;7.40;4.47;;;-2.60;99.90;;;;;;4998773;28;20252;-93
2021/12/30 05:23:46;;;;;;;9.20;4.63;;;-2.50;99.90;;;;;;5000478;28;20649;-92
2021/12/30 05:26:18;;;;;;;6.63;4.03;;;-2.50;99.90;;;;;;4999209;28;20214;-92
2021/12/30 05:28:49;;;;;;;7.53;4.83;;;-2.50;99.90;;;;;;5000032;28;20642;-94
2021/12/30 05:31:20;;;;;;;6.97;4.77;;;-2.50;99.90;;;;;;4999253;28;20261;-92
2021/12/30 05:33:52;;;;;;;7.43;4.80;;;-2.50;99.90;;;;;;5000578;28;20206;-91
2021/12/30 05:36:24;;;;;;;12.80;5.03;;;-2.40;99.90;;;;;;4998700;28;20210;-93
2021/12/30 05:38:57;;;;;;;7.53;5.10;;;-2.50;99.90;;;;;;4999771;28;20266;-92
2021/12/30 05:41:29;;;;;;;7.20;4.50;;;-2.50;99.90;;;;;;4999144;28;20231;-94
2021/12/30 05:44:00;;;;;;;9.53;4.87;;;-2.50;99.90;;;;;;4986107;28;20258;-93
2021/12/30 05:46:31;;;;;;;7.87;4.33;;;-2.50;99.90;;;;;;4980622;28;20261;-93
2021/12/30 05:49:05;;;;;;;8.23;4.60;;;-2.50;99.90;;;;;;4981280;28;20242;-93
2021/12/30 05:51:36;;;;;;;7.70;4.77;;;-2.60;99.90;;;;;;5004250;28;20212;-92
2021/12/30 05:54:10;;;;;;;9.07;4.53;;;-2.80;99.90;;;;;;5001147;28;20264;-92
2021/12/30 05:56:41;;;;;;;10.33;5.30;;;-2.80;99.90;;;;;;5003337;28;20211;-92
2021/12/30 05:59:15;;;;;;;7.97;4.07;;;-2.80;99.90;;;;;;5003013;28;20241;-93
2021/12/30 06:01:47;;;;;;;7.13;4.23;;;-2.80;99.90;;;;;;5003349;28;20237;-92
2021/12/30 06:04:18;;;;;;;8.27;4.70;;;-2.80;99.90;;;;;;5003821;28;20203;-92
2021/12/30 06:06:51;;;;;;;7.67;4.47;;;-2.70;99.90;;;;;;5003586;28;20233;-92
2021/12/30 06:09:26;;;;;;;6.70;4.40;;;-2.70;99.90;;;;;;5003976;28;20243;-92
2021/12/30 06:11:58;;;;;;;5.90;4.33;;;-2.70;99.90;;;;;;5003088;28;20217;-93
2021/12/30 06:14:33;;;;;;;6.40;4.23;;;-2.70;99.90;;;;;;5002317;28;20210;-94
2021/12/30 06:17:10;;;;;;;7.00;4.23;;;-2.60;99.90;;;;;;5001196;28;20206;-94
2021/12/30 06:19:42;;;;;;;7.70;4.77;;;-2.60;99.90;;;;;;5001854;28;20253;-92
2021/12/30 06:22:14;;;;;;;6.33;3.67;;;-2.60;99.90;;;;;;5001900;28;20215;-94
2021/12/30 06:24:48;;;;;;;6.90;4.13;;;-2.50;99.90;;;;;;5002165;28;20206;-93
2021/12/30 06:27:19;;;;;;;7.53;3.80;;;-2.60;99.90;;;;;;5001202;28;20300;-93
2021/12/30 06:29:52;;;;;;;5.87;3.80;;;-2.60;99.90;;;;;;5003365;28;20271;-91
2021/12/30 06:32:24;;;;;;;7.23;4.10;;;-2.50;99.90;;;;;;5002022;28;20206;-92
2021/12/30 06:34:56;;;;;;;6.43;3.53;;;-2.50;99.90;;;;;;4998991;28;20234;-94
2021/12/30 06:37:27;;;;;;;5.03;2.90;;;-2.50;99.90;;;;;;4996752;28;20242;-93
2021/12/30 06:40:01;;;;;;;6.93;3.90;;;-2.40;99.90;;;;;;4998887;28;20245;-92
2021/12/30 06:42:32;;;;;;;4.57;3.27;;;-2.40;99.90;;;;;;4999284;28;20297;-93
2021/12/30 06:45:05;;;;;;;7.50;4.30;;;-2.40;99.90;;;;;;5001670;28;20261;-92
2021/12/30 06:47:42;;;;;;;6.30;3.73;;;-2.40;99.90;;;;;;5020576;28;20229;-93
2021/12/30 06:50:14;;;;;;;7.73;4.10;;;-2.40;99.90;;;;;;5018240;28;20301;-92
2021/12/30 06:52:46;;;;;;;7.47;4.20;;;-2.50;99.90;;;;;;5019654;28;20215;-91
2021/12/30 06:55:19;;;;;;;7.67;4.27;;;-2.50;99.90;;;;;;5018123;28;20237;-92
2021/12/30 06:57:51;;;;;;;5.87;4.00;;;-2.60;99.90;;;;;;5017251;28;20212;-92
2021/12/30 07:00:23;;;;;;;6.80;3.97;;;-2.60;99.90;;;;;;5018326;28;20238;-92
2021/12/30 07:02:55;;;;;;;8.43;4.83;;;-2.50;99.90;;;;;;5018278;28;20226;-92
2021/12/30 07:05:27;;;;;;;5.27;3.40;;;-2.50;99.90;;;;;;5017447;28;20301;-91
2021/12/30 07:07:58;;;;;;;9.03;4.33;;;-2.50;99.90;;;;;;5016135;28;20612;-93
2021/12/30 07:10:32;;;;;;;4.87;3.60;;;-2.40;99.90;;;;;;5018205;28;20206;-93
2021/12/30 07:13:03;;;;;;;6.03;3.57;;;-2.40;99.90;;;;;;5013551;28;20215;-93
2021/12/30 07:15:34;;;;;;;6.53;3.80;;;-2.40;99.90;;;;;;5000628;28;20221;-92
2021/12/30 07:18:06;;;;;;;6.03;3.97;;;-2.40;99.90;;;;;;4997487;28;20207;-92
2021/12/30 07:20:38;;;;;;;5.93;3.60;;;-2.40;99.90;;;;;;5016305;28;20210;-92
2021/12/30 07:23:09;;;;;;;6.70;4.07;;;-2.40;99.90;;;;;;5015170;28;20230;-92
2021/12/30 07:25:43;;;;;;;5.67;3.50;;;-2.50;99.90;;;;;;5008134;28;20274;-91
2021/12/30 07:28:14;;;;;;;5.33;3.50;;;-2.40;99.90;;;;;;5005050;28;20230;-92
2021/12/30 07:30:47;;;;;;;6.97;3.73;;;-2.60;99.90;;;;;;5002813;28;20210;-91
2021/12/30 07:33:18;;;;;;;3.93;2.97;;;-2.50;99.90;;;;;;5000956;28;20211;-89
2021/12/30 07:35:50;;;;;;;6.53;3.90;;;-2.50;99.90;;;;;;5006554;28;20265;-90
2021/12/30 07:38:22;;;;;;;5.90;3.43;;;-2.60;99.90;;;;;;5004142;28;20214;-89
2021/12/30 07:40:56;;;;;;;5.00;3.33;;;-2.50;99.90;;;;;;5000273;28;20215;-91
2021/12/30 07:43:27;;;;;;;4.60;3.10;;;-2.40;99.90;;;;;;4997908;28;20242;-93
2021/12/30 07:45:59;;;;;;;5.03;3.30;;;-2.50;99.90;;;;;;4998572;28;20210;-91
2021/12/30 07:48:31;;;;;;;3.87;3.00;;;-2.50;99.90;;;;;;4998713;28;20237;-92
2021/12/30 07:51:02;;;;;;;4.50;2.90;;;-2.40;99.90;;;;;;5010991;28;20210;-89
2021/12/30 07:53:33;;;;;;;4.73;2.80;;;-2.50;99.90;;;;;;5013433;28;20206;-91
2021/12/30 07:56:07;;;;;;;3.87;2.90;;;-2.50;99.90;;;;;;5016992;28;20274;-89
2021/12/30 08:14:54;;;;;;;3.43;2.30;;;-2.30;99.90;;;;;;5663395;23;20288;-89
2021/12/30 08:17:26;;;;;;;3.80;2.50;;;-2.30;99.90;;;;;;5005001;28;20245;-92
2021/12/30 08:19:57;;;;;;;4.77;2.40;;;-2.30;99.90;;;;;;5007788;28;20265;-89
2021/12/30 08:22:30;;;;;;;3.27;2.27;;;-2.20;99.90;;;;;;5000260;28;20299;-91
2021/12/30 08:25:02;;;;;;;4.80;2.50;;;-2.20;99.90;;;;;;4996352;28;20229;-90
2021/12/30 08:27:37;;;;;;;4.53;2.63;;;-2.20;99.90;;;;;;4979142;28;20564;-91
2021/12/30 08:30:13;;;;;;;5.23;2.57;;;-2.20;99.90;;;;;;4990869;28;20227;-90
2021/12/30 08:32:46;;;;;;;3.30;2.20;;;-2.20;99.90;;;;;;4992696;28;20218;-90
2021/12/30 08:35:20;;;;;;;3.23;2.20;;;-2.20;99.90;;;;;;5005122;28;20211;-93
2021/12/30 08:37:54;;;;;;;2.57;2.00;;;-2.20;99.90;;;;;;5006842;28;20194;-90
2021/12/30 08:40:26;;;;;;;3.70;2.07;;;-2.20;99.90;;;;;;5002531;28;20218;-92
2021/12/30 08:42:58;;;;;;;3.50;2.57;;;-2.20;99.90;;;;;;5000360;28;20195;-91
2021/12/30 08:45:32;;;;;;;2.83;1.73;;;-2.10;99.90;;;;;;5006129;28;20235;-91
2021/12/30 08:48:03;;;;;;;2.30;1.50;;;-2.10;99.90;;;;;;5000901;28;20229;-92
2021/12/30 08:50:35;;;;;;;2.90;1.77;;;-2.10;99.90;;;;;;4999819;28;20286;-91
2021/12/30 08:53:08;;;;;;;3.03;2.00;;;-2.10;99.90;;;;;;5007727;28;20218;-91
2021/12/30 08:55:42;;;;;;;4.00;1.97;;;-2.10;99.90;;;;;;5013735;28;20652;-90
2021/12/30 08:58:13;;;;;;;2.57;1.83;;;-2.10;99.90;;;;;;5439033;23;20238;-90
2021/12/30 09:00:47;;;;;;;3.20;1.63;;;-2.00;99.90;;;;;;4986150;28;20580;-90
2021/12/30 09:03:21;;;;;;;3.13;1.50;;;-2.10;99.90;;;;;;4997794;28;20266;-91
2021/12/30 09:16:43;;;;;;;2.00;1.50;;;-2.00;99.90;;;;;;5485509;23;20501;-90
2021/12/30 09:19:14;;;;;;;2.73;1.50;;;-1.90;99.90;;;;;;5008240;28;20206;-90
2021/12/30 09:27:16;;;;;;;2.40;1.27;;;-1.80;99.90;;;;;;5503726;23;20796;-91
2021/12/30 09:29:48;;;;;;;2.57;1.77;;;-1.80;99.90;;;;;;5000396;28;20232;-91
2021/12/30 09:32:22;;;;;;;1.50;1.10;;;-1.80;99.90;;;;;;5007217;28;20238;-92
2021/12/30 09:34:54;;;;;;;2.63;1.60;;;-1.80;99.90;;;;;;5003507;28;20245;-90
2021/12/30 09:37:27;;;;;;;2.30;1.50;;;-1.70;99.90;;;;;;5013633;28;20214;-90
2021/12/30 09:39:59;;;;;;;3.63;1.70;;;-1.70;99.90;;;;;;5012086;28;20211;-91
2021/12/30 09:42:30;;;;;;;1.70;1.33;;;-1.70;99.90;;;;;;5009121;28;20206;-92
2021/12/30 09:45:01;;;;;;;2.30;1.00;;;-1.60;99.90;;;;;;5010043;28;20710;-92
2021/12/30 09:47:35;;;;;;;1.40;1.10;;;-1.60;99.90;;;;;;5001639;28;20218;-96
2021/12/30 09:50:06;;;;;;;2.33;1.30;;;-1.60;99.90;;;;;;5000199;28;20264;-93
2021/12/30 09:52:38;;;;;;;1.30;1.10;;;-1.60;99.90;;;;;;4999709;28;20215;-94
2021/12/30 09:55:10;;;;;;;1.10;1.00;;;-1.60;99.90;;;;;;5000058;28;20277;-93
2021/12/30 09:57:42;;;;;;;2.97;1.30;;;-1.60;99.90;;;;;;4998151;28;20294;-91
2021/12/30 10:00:16;;;;;;;2.40;1.17;;;-1.60;99.90;;;;;;4999512;28;20206;-92
2021/12/30 10:02:50;;;;;;;1.50;1.10;;;-1.60;99.90;;;;;;4980975;28;20335;-91
2021/12/30 10:05:26;;;;;;;1.10;1.00;;;-1.60;99.90;;;;;;4980991;28;20301;-91
2021/12/30 10:08:18;;;;;;;3.30;2.20;;;-1.60;99.90;;;;;;4980163;28;20235;-90
2021/12/30 10:10:51;;;;;;;1.80;1.10;;;-1.50;99.90;;;;;;4984641;28;20726;-91
2021/12/30 10:13:27;;;;;;;1.70;0.77;;;-1.50;99.90;;;;;;4980547;28;20211;-92
2021/12/30 10:16:01;;;;;;;1.50;0.90;;;-1.50;99.90;;;;;;4979766;28;20203;-92
2021/12/30 10:18:48;;;;;;;1.07;0.80;;;-1.50;99.90;;;;;;4979457;28;20206;-95
2021/12/30 10:21:23;;;;;;;0.70;0.70;;;-1.40;99.90;;;;;;4994396;28;20285;-92
2021/12/30 10:23:57;;;;;;;0.80;0.70;;;-1.40;99.90;;;;;;4995580;28;20243;-93
2021/12/30 10:26:31;;;;;;;0.90;0.77;;;-1.40;99.90;;;;;;4998198;28;20234;-93
2021/12/30 10:29:04;;;;;;;1.30;1.00;;;-1.30;99.90;;;;;;4997170;28;20254;-93
2021/12/30 10:31:36;;;;;;;1.87;0.77;;;-1.40;99.90;;;;;;4998401;28;20687;-94
2021/12/30 10:34:11;;;;;;;1.17;0.77;;;-1.30;99.90;;;;;;4998792;28;20302;-92
2021/12/30 10:36:44;;;;;;;1.87;0.70;;;-1.30;99.90;;;;;;4999419;28;20201;-94
2021/12/30 10:39:21;;;;;;;1.00;0.70;;;-1.30;99.90;;;;;;4998872;28;20216;-93
2021/12/30 10:41:56;;;;;;;1.30;0.90;;;-1.20;99.90;;;;;;5001575;28;20214;-94
2021/12/30 10:44:47;;;;;;;0.93;0.70;;;-1.20;99.90;;;;;;5004936;28;20273;-92
2021/12/30 10:47:20;;;;;;;1.43;0.97;;;-1.20;99.90;;;;;;5001538;28;20641;-92
2021/12/30 10:50:02;;;;;;;0.90;0.70;;;-1.20;99.90;;;;;;5006287;28;20258;-92
2021/12/30 10:52:33;;;;;;;1.90;0.77;;;-1.20;99.90;;;;;;5011369;28;20209;-94
2021/12/30 10:55:13;;;;;;;0.57;0.50;;;-1.10;99.90;;;;;;5014930;28;20213;-92
2021/12/30 11:00:34;;;;;;;1.13;0.67;;;-1.10;99.90;;;;;;5014620;28;20208;-93
2021/12/30 11:03:20;;;;;;;0.73;0.73;;;-1.10;99.90;;;;;;5017260;28;20187;-93
2021/12/30 11:06:15;;;;;;;2.73;0.70;;;-1.00;99.90;;;;;;5016968;28;20212;-93
2021/12/30 11:08:46;;;;;;;1.43;0.80;;;-1.10;99.90;;;;;;5009434;28;20211;-94
2021/12/30 11:11:27;;;;;;;1.47;0.70;;;-1.10;99.90;;;;;;5004701;28;20225;-93
2021/12/30 11:14:01;;;;;;;1.33;0.80;;;-1.10;99.90;;;;;;4991896;28;20218;-94
2021/12/30 11:16:32;;;;;;;1.60;0.80;;;-1.10;99.90;;;;;;4982570;28;20203;-93
2021/12/30 11:19:09;;;;;;;1.77;0.83;;;-1.10;99.90;;;;;;4985291;28;20203;-93
2021/12/30 11:21:47;;;;;;;2.73;0.93;;;-1.10;99.90;;;;;;4982908;28;20539;-91
2021/12/30 11:24:20;;;;;;;1.47;1.13;;;-1.10;99.90;;;;;;4981698;28;20724;-93
2021/12/30 11:26:53;;;;;;;1.47;0.67;;;-1.20;99.90;;;;;;4996700;28;20575;-91
2021/12/30 11:29:24;;;;;;;0.87;0.80;;;-1.20;99.90;;;;;;4980469;28;20240;-93
2021/12/30 11:31:56;;;;;;;1.40;0.60;;;-1.20;99.90;;;;;;4980903;28;20218;-91
2021/12/30 11:34:29;;;;;;;2.03;0.80;;;-1.20;99.90;;;;;;4980264;28;20293;-91
2021/12/30 11:37:02;;;;;;;1.00;0.83;;;-1.20;99.90;;;;;;4980126;28;20635;-91
2021/12/30 11:39:34;;;;;;;2.67;0.60;;;-1.20;99.90;;;;;;4981549;28;20246;-91
2021/12/30 11:42:08;;;;;;;0.70;0.60;;;-1.10;99.90;;;;;;4980314;28;20232;-93
2021/12/30 11:44:46;;;;;;;2.97;1.30;;;-1.10;99.90;;;;;;4980419;28;20648;-93
2021/12/30 11:47:40;;;;;;;0.83;0.80;;;-1.10;99.90;;;;;;4977854;28;20679;-92
2021/12/30 11:50:15;;;;;;;0.70;0.57;;;-1.10;99.90;;;;;;4981335;28;20245;-92
2021/12/30 11:53:00;;;;;;;2.33;1.03;;;-1.10;99.90;;;;;;4984117;28;20241;-92
2021/12/30 11:55:53;;;;;;;1.23;0.70;;;-1.00;99.90;;;;;;4984084;28;20207;-92
2021/12/30 11:58:45;;;;;;;1.83;1.43;;;-1.00;99.90;;;;;;4988211;28;20220;-91
2021/12/30 12:01:52;;;;;;;1.53;1.30;;;-0.90;99.90;;;;;;4987065;28;20211;-90
2021/12/30 12:04:29;;;;;;;0.90;0.67;;;-0.90;99.90;;;;;;4989406;28;20233;-90
2021/12/30 12:07:03;;;;;;;1.10;0.67;;;-0.90;99.90;;;;;;4981635;28;20211;-92
2021/12/30 12:09:40;;;;;;;2.43;0.70;;;-0.80;99.90;;;;;;4982962;28;20697;-90
2021/12/30 12:12:15;;;;;;;0.90;0.73;;;-0.80;99.90;;;;;;4983041;28;20230;-92
2021/12/30 12:15:01;;;;;;;0.87;0.70;;;-0.70;99.90;;;;;;4982779;28;20310;-93
2021/12/30 12:17:36;;;;;;;0.90;0.70;;;-0.70;99.90;;;;;;4982059;28;20250;-93
2021/12/30 12:20:23;;;;;;;1.43;0.80;;;-0.70;99.90;;;;;;4982387;28;20231;-93
2021/12/30 12:22:54;;;;;;;2.17;0.70;;;-0.70;99.90;;;;;;4983177;28;20231;-92
2021/12/30 12:25:31;;;;;;;0.90;0.60;;;-0.60;99.90;;;;;;4998265;28;20619;-92
2021/12/30 12:28:04;;;;;;;1.13;0.97;;;-0.60;99.90;;;;;;4980764;28;20214;-92
2021/12/30 12:30:38;;;;;;;1.10;0.50;;;-0.60;99.90;;;;;;4982798;28;20234;-92
2021/12/30 12:33:25;;;;;;;5.97;0.60;;;-0.60;99.90;;;;;;4985590;28;20283;-92
2021/12/30 12:35:58;;;;;;;0.83;0.60;;;-0.50;99.90;;;;;;4981743;28;20218;-91
2021/12/30 12:38:43;;;;;;;0.97;0.50;;;-0.50;99.90;;;;;;4986349;28;20204;-93
2021/12/30 12:41:23;;;;;;;0.80;0.70;;;-0.50;99.90;;;;;;4982454;28;20209;-92
2021/12/30 12:43:59;;;;;;;1.40;0.87;;;-0.50;99.90;;;;;;5005740;28;20212;-94
2021/12/30 12:46:42;;;;;;;1.33;0.90;;;-0.40;99.90;;;;;;5020423;28;20228;-93
2021/12/30 12:49:14;;;;;;;2.00;0.60;;;-0.40;99.90;;;;;;5020070;28;20224;-95
2021/12/30 12:51:54;;;;;;;1.27;0.63;;;-0.30;99.90;;;;;;5020638;28;20239;-93
2021/12/30 12:54:38;;;;;;;3.67;0.90;;;-0.30;99.90;;;;;;5021978;28;20207;-92
2021/12/30 12:57:16;;;;;;;2.50;0.93;;;-0.30;99.90;;;;;;5018947;28;20219;-93
2021/12/30 12:59:48;;;;;;;1.53;1.07;;;-0.30;99.90;;;;;;5020222;28;20208;-92
2021/12/30 13:02:21;;;;;;;0.47;0.43;;;-0.30;99.90;;;;;;5020456;28;20245;-94
2021/12/30 13:04:52;;;;;;;0.70;0.50;;;-0.20;99.90;;;;;;5022161;28;20217;-94
2021/12/30 13:07:23;;;;;;;1.67;0.50;;;-0.20;99.90;;;;;;4981046;28;20231;-93
2021/12/30 13:09:54;;;;;;;0.50;0.50;;;-0.20;99.90;;;;;;4982306;28;20636;-89
2021/12/30 13:12:28;;;;;;;0.40;0.40;;;-0.10;99.90;;;;;;4980951;28;20204;-92
2021/12/30 13:14:59;;;;;;;0.70;0.63;;;-0.10;99.90;;;;;;4981321;28;20244;-93
2021/12/30 13:17:31;;;;;;;7.17;3.13;;;0.00;99.90;;;;;;4981058;28;20214;-92
2021/12/30 13:20:04;;;;;;;0.80;0.80;;;0.00;99.90;;;;;;4979126;28;20267;-92
2021/12/30 13:22:35;;;;;;;1.00;0.90;;;0.10;99.90;;;;;;4980521;28;20209;-91
2021/12/30 13:25:08;;;;;;;0.80;0.80;;;0.20;99.90;;;;;;4983470;28;20233;-91
2021/12/30 13:27:44;;;;;;;1.70;1.00;;;0.30;99.90;;;;;;4980795;28;20283;-92
2021/12/30 13:30:33;;;;;;;1.97;0.90;;;0.30;99.90;;;;;;4985066;28;20249;-90
2021/12/30 13:33:06;;;;;;;1.13;0.83;;;0.50;99.90;;;;;;4981560;28;20240;-91
2021/12/30 13:35:39;;;;;;;0.93;0.50;;;0.50;99.90;;;;;;4982831;28;20241;-91
2021/12/30 13:38:12;;;;;;;1.70;0.67;;;0.50;99.90;;;;;;4979648;28;20230;-92
2021/12/30 13:40:46;;;;;;;0.33;0.33;;;0.50;99.90;;;;;;4980118;28;20264;-92
2021/12/30 13:43:24;;;;;;;1.33;0.80;;;0.40;99.90;;;;;;4979657;28;20211;-92
2021/12/30 13:45:59;;;;;;;0.70;0.50;;;0.40;99.90;;;;;;4982034;28;20252;-89
2021/12/30 13:48:34;;;;;;;0.87;0.70;;;0.40;99.90;;;;;;4979995;28;20210;-91
2021/12/30 13:51:07;;;;;;;0.60;0.60;;;0.40;99.90;;;;;;4978659;28;20237;-91
2021/12/30 13:53:41;;;;;;;1.33;1.10;;;0.40;99.90;;;;;;4979544;28;20206;-89
2021/12/30 13:56:14;;;;;;;1.70;0.40;;;0.40;99.90;;;;;;4978096;28;20677;-90